createdAt,value
2018-07-08T00:01:32.043Z,14.00
2018-07-08T00:04:00.457Z,14.00
2018-07-08T00:06:28.934Z,13.90
2018-07-08T00:09:01.351Z,13.90
2018-07-08T00:11:29.581Z,14.00
2018-07-08T00:13:58.233Z,13.90
2018-07-08T00:16:26.554Z,13.90
2018-07-08T00:18:54.827Z,13.90
2018-07-08T00:21:23.132Z,13.90
2018-07-08T00:23:51.421Z,13.90
2018-07-08T00:26:19.608Z,13.80
2018-07-08T00:28:47.825Z,13.80
2018-07-08T00:31:16.071Z,13.80
2018-07-08T00:33:44.469Z,13.80
2018-07-08T00:36:12.796Z,13.80
2018-07-08T00:38:41.088Z,13.80
2018-07-08T00:41:09.336Z,13.80
2018-07-08T00:43:37.540Z,13.80
2018-07-08T00:46:05.823Z,13.80
2018-07-08T00:48:34.132Z,13.70
2018-07-08T00:51:03.349Z,13.80
2018-07-08T00:53:31.604Z,13.80
2018-07-08T00:55:59.892Z,13.80
2018-07-08T00:58:28.267Z,13.80
2018-07-08T01:00:56.620Z,13.90
2018-07-08T01:03:24.944Z,13.90
2018-07-08T01:05:53.202Z,13.90
2018-07-08T01:08:21.435Z,13.90
2018-07-08T01:10:49.712Z,13.90
2018-07-08T01:13:18.143Z,13.80
2018-07-08T01:15:46.392Z,13.90
2018-07-08T01:18:14.662Z,13.80
2018-07-08T01:20:42.952Z,13.80
2018-07-08T01:23:11.219Z,13.80
2018-07-08T01:25:50.644Z,13.70
2018-07-08T01:28:18.971Z,13.70
2018-07-08T01:30:47.200Z,13.60
2018-07-08T01:33:15.492Z,13.60
2018-07-08T01:35:43.733Z,13.50
2018-07-08T01:38:11.976Z,13.50
2018-07-08T01:40:40.252Z,13.50
2018-07-08T01:43:08.468Z,13.50
2018-07-08T01:45:36.808Z,13.40
2018-07-08T01:48:05.155Z,13.40
2018-07-08T01:50:33.838Z,13.40
2018-07-08T01:53:02.173Z,13.40
2018-07-08T01:55:30.715Z,13.40
2018-07-08T01:57:59.148Z,13.40
2018-07-08T02:00:27.601Z,13.40
2018-07-08T02:02:56.239Z,13.40
2018-07-08T02:05:25.322Z,13.50
2018-07-08T02:07:54.151Z,13.50
2018-07-08T02:10:22.456Z,13.40
2018-07-08T02:12:50.981Z,13.50
2018-07-08T02:15:19.305Z,13.50
2018-07-08T02:17:47.666Z,13.50
2018-07-08T02:20:16.836Z,13.50
2018-07-08T02:22:45.501Z,13.40
2018-07-08T02:25:14.087Z,13.50
2018-07-08T02:27:42.495Z,13.50
2018-07-08T02:30:10.965Z,13.50
2018-07-08T02:32:39.539Z,13.40
2018-07-08T02:35:07.897Z,13.40
2018-07-08T02:37:36.397Z,13.50
2018-07-08T02:40:05.218Z,13.50
2018-07-08T02:42:33.661Z,13.60
2018-07-08T02:45:01.956Z,13.60
2018-07-08T02:47:30.367Z,13.50
2018-07-08T02:49:58.800Z,13.50
2018-07-08T02:52:27.088Z,13.50
2018-07-08T02:54:55.521Z,13.50
2018-07-08T02:57:23.839Z,13.50
2018-07-08T02:59:52.212Z,13.50
2018-07-08T03:02:20.447Z,13.40
2018-07-08T03:04:48.940Z,13.40
2018-07-08T03:07:17.336Z,13.40
2018-07-08T03:09:45.695Z,13.40
2018-07-08T03:12:14.035Z,13.40
2018-07-08T03:14:42.511Z,13.30
2018-07-08T03:17:10.954Z,13.30
2018-07-08T03:19:39.191Z,13.30
2018-07-08T03:22:07.548Z,13.40
2018-07-08T03:24:35.999Z,13.30
2018-07-08T03:27:04.254Z,13.30
2018-07-08T03:29:32.686Z,13.30
2018-07-08T03:32:01.140Z,13.20
2018-07-08T03:34:29.413Z,13.20
2018-07-08T03:36:57.701Z,13.20
2018-07-08T03:39:26.008Z,13.20
2018-07-08T03:41:54.366Z,13.20
2018-07-08T03:44:22.768Z,13.20
2018-07-08T03:46:51.115Z,13.20
2018-07-08T03:49:19.399Z,13.20
2018-07-08T03:51:47.666Z,13.30
2018-07-08T03:54:26.977Z,13.20
2018-07-08T03:56:55.286Z,13.20
2018-07-08T03:59:23.597Z,13.20
2018-07-08T04:01:51.961Z,13.20
2018-07-08T04:04:20.517Z,13.20
2018-07-08T04:06:48.795Z,13.10
2018-07-08T04:09:17.781Z,13.10
2018-07-08T04:11:46.429Z,13.20
2018-07-08T04:14:14.649Z,13.20
2018-07-08T04:16:42.921Z,13.30
2018-07-08T04:19:11.251Z,13.30
2018-07-08T04:21:39.857Z,13.30
2018-07-08T04:24:08.296Z,13.30
2018-07-08T04:26:36.665Z,13.20
2018-07-08T04:29:04.986Z,13.20
2018-07-08T04:31:33.351Z,13.20
2018-07-08T04:34:01.789Z,13.20
2018-07-08T04:36:30.114Z,13.30
2018-07-08T04:38:58.440Z,13.30
2018-07-08T04:41:26.808Z,13.40
2018-07-08T04:43:55.215Z,13.40
2018-07-08T04:46:23.487Z,13.50
2018-07-08T04:48:51.791Z,13.50
2018-07-08T04:51:20.273Z,13.60
2018-07-08T04:53:48.732Z,13.60
2018-07-08T04:56:16.956Z,13.60
2018-07-08T04:58:45.339Z,13.70
2018-07-08T05:01:13.579Z,13.70
2018-07-08T05:03:41.995Z,13.70
2018-07-08T05:06:10.351Z,13.80
2018-07-08T05:08:38.580Z,13.80
2018-07-08T05:11:06.847Z,13.80
2018-07-08T05:13:35.075Z,13.80
2018-07-08T05:16:03.303Z,13.90
2018-07-08T05:18:31.586Z,13.90
2018-07-08T05:20:59.880Z,13.90
2018-07-08T05:23:28.085Z,14.00
2018-07-08T05:25:56.371Z,14.00
2018-07-08T05:28:24.649Z,14.20
2018-07-08T05:30:53.188Z,14.30
2018-07-08T05:33:21.488Z,14.50
2018-07-08T05:35:50.117Z,14.60
2018-07-08T05:38:18.327Z,14.60
2018-07-08T05:40:46.668Z,14.60
2018-07-08T05:43:14.992Z,14.60
2018-07-08T05:45:43.290Z,14.50
2018-07-08T05:48:11.664Z,14.50
2018-07-08T05:50:40.141Z,14.50
2018-07-08T05:53:08.475Z,14.60
2018-07-08T05:55:36.716Z,14.60
2018-07-08T05:58:04.960Z,14.60
2018-07-08T06:00:33.156Z,14.70
2018-07-08T06:03:01.406Z,14.70
2018-07-08T06:05:29.694Z,14.80
2018-07-08T06:07:58.005Z,14.90
2018-07-08T06:10:26.499Z,15.00
2018-07-08T06:12:54.747Z,15.00
2018-07-08T06:15:22.966Z,15.10
2018-07-08T06:17:51.423Z,15.10
2018-07-08T06:20:19.846Z,15.10
2018-07-08T06:22:48.219Z,15.10
2018-07-08T06:25:16.503Z,15.20
2018-07-08T06:27:44.811Z,15.20
2018-07-08T06:30:13.185Z,15.20
2018-07-08T06:32:41.480Z,15.30
2018-07-08T06:35:09.956Z,15.40
2018-07-08T06:37:38.403Z,15.40
2018-07-08T06:40:06.764Z,15.50
2018-07-08T06:42:35.189Z,15.50
2018-07-08T06:45:03.415Z,15.60
2018-07-08T06:47:31.865Z,15.60
2018-07-08T06:50:00.077Z,15.80
2018-07-08T06:52:28.384Z,15.90
2018-07-08T06:54:56.648Z,15.90
2018-07-08T06:57:24.980Z,16.00
2018-07-08T06:59:53.174Z,16.10
2018-07-08T07:02:21.387Z,16.10
2018-07-08T07:04:49.643Z,16.20
2018-07-08T07:07:17.804Z,16.30
2018-07-08T07:09:46.041Z,16.30
2018-07-08T07:12:15.327Z,16.50
2018-07-08T07:14:44.509Z,16.50
2018-07-08T07:17:12.676Z,16.60
2018-07-08T07:19:40.901Z,16.80
2018-07-08T07:22:09.124Z,16.80
2018-07-08T07:24:37.447Z,16.90
2018-07-08T07:27:05.600Z,16.90
2018-07-08T07:29:33.817Z,16.90
2018-07-08T07:32:02.014Z,17.00
2018-07-08T07:34:30.250Z,17.10
2018-07-08T07:36:58.481Z,17.20
2018-07-08T07:39:26.632Z,17.20
2018-07-08T07:41:54.836Z,17.30
2018-07-08T07:44:23.170Z,17.40
2018-07-08T07:46:51.480Z,17.50
2018-07-08T07:49:19.712Z,17.60
2018-07-08T07:51:47.957Z,17.50
2018-07-08T07:54:16.183Z,17.60
2018-07-08T07:56:44.393Z,17.60
2018-07-08T07:59:12.611Z,17.70
2018-07-08T08:01:40.789Z,17.70
2018-07-08T08:04:08.991Z,17.80
2018-07-08T08:06:37.145Z,17.90
2018-07-08T08:09:05.912Z,18.00
2018-07-08T08:11:34.032Z,18.10
2018-07-08T08:14:06.090Z,18.00
2018-07-08T08:16:34.544Z,18.10
2018-07-08T08:19:03.351Z,18.20
2018-07-08T08:21:31.616Z,18.30
2018-07-08T08:23:59.987Z,18.30
2018-07-08T08:26:29.098Z,18.40
2018-07-08T08:28:57.449Z,18.40
2018-07-08T08:31:25.665Z,18.50
2018-07-08T08:35:05.479Z,18.60
2018-07-08T08:37:37.719Z,18.70
2018-07-08T08:40:06.607Z,18.90
2018-07-08T08:42:34.824Z,19.00
2018-07-08T08:45:03.279Z,18.90
2018-07-08T08:47:32.075Z,19.00
2018-07-08T08:50:03.542Z,19.10
2018-07-08T08:52:33.623Z,19.30
2018-07-08T08:55:04.111Z,19.30
2018-07-08T08:57:32.435Z,19.30
2018-07-08T09:00:00.650Z,19.40
2018-07-08T09:02:28.824Z,19.40
2018-07-08T09:04:57.001Z,19.40
2018-07-08T09:07:25.184Z,19.50
2018-07-08T09:09:53.372Z,19.50
2018-07-08T09:12:21.642Z,19.60
2018-07-08T09:14:49.910Z,19.60
2018-07-08T09:17:18.206Z,19.80
2018-07-08T09:19:46.331Z,19.80
2018-07-08T09:22:14.562Z,19.80
2018-07-08T09:24:42.775Z,19.90
2018-07-08T09:27:10.971Z,20.00
2018-07-08T09:29:39.232Z,20.00
2018-07-08T09:32:07.397Z,20.00
2018-07-08T09:34:35.604Z,20.10
2018-07-08T09:37:03.781Z,20.10
2018-07-08T09:39:31.937Z,20.20
2018-07-08T09:42:00.216Z,20.30
2018-07-08T09:44:28.414Z,20.30
2018-07-08T09:46:56.660Z,20.40
2018-07-08T09:49:24.928Z,20.50
2018-07-08T09:51:53.323Z,20.60
2018-07-08T09:54:21.839Z,20.70
2018-07-08T09:56:49.996Z,20.80
2018-07-08T09:59:18.224Z,20.90
2018-07-08T10:01:48.228Z,21.00
2018-07-08T10:04:18.688Z,21.00
2018-07-08T10:06:47.653Z,21.00
2018-07-08T10:09:16.905Z,20.90
2018-07-08T10:11:45.215Z,20.90
2018-07-08T10:14:15.511Z,21.00
2018-07-08T10:16:43.762Z,21.10
2018-07-08T10:19:12.861Z,21.20
2018-07-08T10:21:41.083Z,21.20
2018-07-08T10:24:09.463Z,21.30
2018-07-08T10:26:37.712Z,21.30
2018-07-08T10:29:06.168Z,21.40
2018-07-08T10:31:44.869Z,21.50
2018-07-08T10:34:13.035Z,21.60
2018-07-08T10:36:41.284Z,21.80
2018-07-08T10:39:10.630Z,21.80
2018-07-08T10:41:38.941Z,21.80
2018-07-08T10:44:07.125Z,21.90
2018-07-08T10:46:35.257Z,22.00
2018-07-08T10:49:03.431Z,22.00
2018-07-08T10:51:31.623Z,22.20
2018-07-08T10:53:59.944Z,22.40
2018-07-08T10:56:28.232Z,22.70
2018-07-08T10:58:56.545Z,22.80
2018-07-08T11:01:24.711Z,22.80
2018-07-08T11:03:52.968Z,22.80
2018-07-08T11:06:21.237Z,22.70
2018-07-08T11:08:49.548Z,22.60
2018-07-08T11:11:17.755Z,22.70
2018-07-08T11:13:45.960Z,22.70
2018-07-08T11:16:14.154Z,22.70
2018-07-08T11:18:42.436Z,22.70
2018-07-08T11:21:10.664Z,22.80
2018-07-08T11:23:38.903Z,22.90
2018-07-08T11:26:07.165Z,22.90
2018-07-08T11:28:35.416Z,22.90
2018-07-08T11:31:03.700Z,22.90
2018-07-08T11:33:31.956Z,22.90
2018-07-08T11:36:00.178Z,22.90
2018-07-08T11:38:28.347Z,22.90
2018-07-08T11:40:56.633Z,22.90
2018-07-08T11:43:24.813Z,22.90
2018-07-08T11:45:53.035Z,22.90
2018-07-08T11:48:21.284Z,22.90
2018-07-08T11:50:49.534Z,22.90
2018-07-08T11:53:17.788Z,22.80
2018-07-08T11:55:46.072Z,22.70
2018-07-08T11:58:14.338Z,22.80
2018-07-08T12:00:42.585Z,22.80
2018-07-08T12:03:10.814Z,22.90
2018-07-08T12:05:39.289Z,23.00
2018-07-08T12:08:07.655Z,23.10
2018-07-08T12:10:35.818Z,23.20
2018-07-08T12:13:04.123Z,23.20
2018-07-08T12:15:32.323Z,23.20
2018-07-08T12:18:01.112Z,23.20
2018-07-08T12:20:29.440Z,23.20
2018-07-08T12:22:57.708Z,23.20
2018-07-08T12:25:25.896Z,23.20
2018-07-08T12:27:54.155Z,23.30
2018-07-08T12:30:22.497Z,23.30
2018-07-08T12:32:50.729Z,23.30
2018-07-08T12:35:18.997Z,23.40
2018-07-08T12:37:47.246Z,23.40
2018-07-08T12:40:15.411Z,23.50
2018-07-08T12:42:43.610Z,23.50
2018-07-08T12:45:11.866Z,23.50
2018-07-08T12:47:40.118Z,23.60
2018-07-08T12:50:08.368Z,23.60
2018-07-08T12:52:36.576Z,23.70
2018-07-08T12:55:04.780Z,23.70
2018-07-08T12:57:33.107Z,23.90
2018-07-08T13:00:01.316Z,23.90
2018-07-08T13:02:29.618Z,23.90
2018-07-08T13:04:57.892Z,23.90
2018-07-08T13:07:26.166Z,24.00
2018-07-08T13:09:54.456Z,24.10
2018-07-08T13:12:22.681Z,24.10
2018-07-08T13:14:50.968Z,24.10
2018-07-08T13:17:19.322Z,24.10
2018-07-08T13:19:47.605Z,24.10
2018-07-08T13:22:15.824Z,24.00
2018-07-08T13:24:44.131Z,24.00
2018-07-08T13:27:12.298Z,23.90
2018-07-08T13:29:40.520Z,23.80
2018-07-08T13:32:08.776Z,23.80
2018-07-08T13:34:36.960Z,23.80
2018-07-08T13:37:05.244Z,23.80
2018-07-08T13:39:33.564Z,23.80
2018-07-08T13:42:01.749Z,23.90
2018-07-08T13:44:29.924Z,24.00
2018-07-08T13:46:58.128Z,24.00
2018-07-08T13:49:26.369Z,24.10
2018-07-08T13:51:54.539Z,24.00
2018-07-08T13:54:22.868Z,24.00
2018-07-08T13:56:51.109Z,23.90
2018-07-08T13:59:19.514Z,23.90
2018-07-08T14:01:47.834Z,23.80
2018-07-08T14:04:16.040Z,23.70
2018-07-08T14:06:44.196Z,23.80
2018-07-08T14:09:12.432Z,23.80
2018-07-08T14:11:40.614Z,23.80
2018-07-08T14:14:08.785Z,23.70
2018-07-08T14:16:37.006Z,23.70
2018-07-08T14:19:05.189Z,23.60
2018-07-08T14:21:33.378Z,23.70
2018-07-08T14:24:01.614Z,23.70
2018-07-08T14:26:29.806Z,23.70
2018-07-08T14:28:58.004Z,23.70
2018-07-08T14:31:26.220Z,23.70
2018-07-08T14:33:54.454Z,23.70
2018-07-08T14:36:22.651Z,23.70
2018-07-08T14:38:50.875Z,23.80
2018-07-08T14:41:19.141Z,23.70
2018-07-08T14:43:47.349Z,23.70
2018-07-08T14:46:15.600Z,23.70
2018-07-08T14:48:43.803Z,23.70
2018-07-08T14:51:12.004Z,23.60
2018-07-08T14:53:40.279Z,23.60
2018-07-08T14:56:08.520Z,23.60
2018-07-08T14:58:36.714Z,23.70
2018-07-08T15:01:04.943Z,23.70
2018-07-08T15:03:33.160Z,23.70
2018-07-08T15:06:01.398Z,23.50
2018-07-08T15:08:29.623Z,23.60
2018-07-08T15:10:57.919Z,23.60
2018-07-08T15:13:26.090Z,23.60
2018-07-08T15:15:54.437Z,23.60
2018-07-08T15:18:22.629Z,23.60
2018-07-08T15:20:50.944Z,23.60
2018-07-08T15:23:19.147Z,23.60
2018-07-08T15:25:47.466Z,23.50
2018-07-08T15:28:15.751Z,23.40
2018-07-08T15:30:44.008Z,23.30
2018-07-08T15:33:12.708Z,23.30
2018-07-08T15:35:41.226Z,23.30
2018-07-08T15:38:09.520Z,23.30
2018-07-08T15:40:38.047Z,23.40
2018-07-08T15:43:06.337Z,23.40
2018-07-08T15:45:34.563Z,23.30
2018-07-08T15:48:02.701Z,23.20
2018-07-08T15:50:32.058Z,23.30
2018-07-08T15:53:00.264Z,23.30
2018-07-08T15:55:28.484Z,23.40
2018-07-08T15:57:56.699Z,23.40
2018-07-08T16:00:24.891Z,23.30
2018-07-08T16:02:53.171Z,23.20
2018-07-08T16:05:21.375Z,23.20
2018-07-08T16:07:49.548Z,23.20
2018-07-08T16:10:17.755Z,23.20
2018-07-08T16:12:45.955Z,23.30
2018-07-08T16:15:14.140Z,23.30
2018-07-08T16:17:42.314Z,23.40
2018-07-08T16:20:10.513Z,23.30
2018-07-08T16:22:38.739Z,23.20
2018-07-08T16:25:06.960Z,23.10
2018-07-08T16:27:35.135Z,23.00
2018-07-08T16:30:03.326Z,22.90
2018-07-08T16:32:31.545Z,22.90
2018-07-08T16:35:00.336Z,22.80
2018-07-08T16:37:28.534Z,22.90
2018-07-08T16:39:59.139Z,22.80
2018-07-08T16:42:30.959Z,22.80
2018-07-08T16:45:01.461Z,22.70
2018-07-08T16:47:29.826Z,22.60
2018-07-08T16:49:58.123Z,22.50
2018-07-08T16:52:26.327Z,22.50
2018-07-08T16:54:54.565Z,22.40
2018-07-08T16:57:22.796Z,22.40
2018-07-08T16:59:51.054Z,22.40
2018-07-08T17:02:19.335Z,22.30
2018-07-08T17:04:47.499Z,22.20
2018-07-08T17:07:15.916Z,22.10
2018-07-08T17:09:45.816Z,21.90
2018-07-08T17:12:14.103Z,21.90
2018-07-08T17:14:42.352Z,21.80
2018-07-08T17:17:10.529Z,21.80
2018-07-08T17:19:38.760Z,21.70
2018-07-08T17:22:08.091Z,21.60
2018-07-08T17:24:36.400Z,21.60
2018-07-08T17:27:04.782Z,21.60
2018-07-08T17:29:33.074Z,21.60
2018-07-08T17:32:01.520Z,21.50
2018-07-08T17:34:30.018Z,21.50
2018-07-08T17:37:00.403Z,21.40
2018-07-08T17:39:28.728Z,21.40
2018-07-08T17:41:57.136Z,21.30
2018-07-08T17:44:25.438Z,21.30
2018-07-08T17:46:53.759Z,21.10
2018-07-08T17:49:22.037Z,21.00
2018-07-08T17:51:50.994Z,20.90
2018-07-08T17:54:20.521Z,20.90
2018-07-08T17:56:48.864Z,20.90
2018-07-08T17:59:17.380Z,20.80
2018-07-08T18:01:45.704Z,20.80
2018-07-08T18:04:13.943Z,20.80
2018-07-08T18:06:42.271Z,20.70
2018-07-08T18:09:10.546Z,20.70
2018-07-08T18:11:39.009Z,20.70
2018-07-08T18:14:07.436Z,20.60
2018-07-08T18:16:35.728Z,20.50
2018-07-08T18:19:04.083Z,20.40
2018-07-08T18:21:32.648Z,20.40
2018-07-08T18:24:01.034Z,20.30
2018-07-08T18:26:29.429Z,20.20
2018-07-08T18:28:57.773Z,20.10
2018-07-08T18:31:26.131Z,20.00
2018-07-08T18:33:54.495Z,20.00
2018-07-08T18:36:23.397Z,19.90
2018-07-08T18:38:52.737Z,19.90
2018-07-08T18:41:21.145Z,19.80
2018-07-08T18:43:49.566Z,19.80
2018-07-08T18:46:18.146Z,19.80
2018-07-08T18:48:46.256Z,19.70
2018-07-08T18:51:15.591Z,19.60
2018-07-08T18:53:45.011Z,19.40
2018-07-08T18:56:19.087Z,19.40
2018-07-08T18:58:47.537Z,19.40
2018-07-08T19:01:15.928Z,19.30
2018-07-08T19:03:44.273Z,19.20
2018-07-08T19:06:12.671Z,19.20
2018-07-08T19:08:40.900Z,19.20
2018-07-08T19:11:09.236Z,19.20
2018-07-08T19:13:37.533Z,19.10
2018-07-08T19:16:08.010Z,19.10
2018-07-08T19:18:36.773Z,19.00
2018-07-08T19:21:05.032Z,18.90
2018-07-08T19:23:33.360Z,18.80
2018-07-08T19:26:01.625Z,18.70
2018-07-08T19:28:29.868Z,18.60
2018-07-08T19:30:58.188Z,18.50
2018-07-08T19:33:26.463Z,18.50
2018-07-08T19:35:54.719Z,18.50
2018-07-08T19:38:23.076Z,18.30
2018-07-08T19:40:51.506Z,18.20
2018-07-08T19:43:19.852Z,18.20
2018-07-08T19:45:48.188Z,18.10
2018-07-08T19:48:16.481Z,18.10
2018-07-08T19:50:44.755Z,18.00
2018-07-08T19:53:13.057Z,17.90
2018-07-08T19:55:42.617Z,17.90
2018-07-08T19:58:10.922Z,17.80
2018-07-08T20:00:40.364Z,17.80
2018-07-08T20:03:09.252Z,17.70
2018-07-08T20:05:37.565Z,17.70
2018-07-08T20:08:05.822Z,17.60
2018-07-08T20:10:34.125Z,17.60
2018-07-08T20:13:02.480Z,17.40
2018-07-08T20:15:30.829Z,17.40
2018-07-08T20:17:59.186Z,17.30
2018-07-08T20:20:27.425Z,17.30
2018-07-08T20:22:55.904Z,17.20
2018-07-08T20:25:24.413Z,17.20
2018-07-08T20:27:52.769Z,17.20
2018-07-08T20:30:21.329Z,17.10
2018-07-08T20:32:50.785Z,17.10
2018-07-08T20:35:19.154Z,17.10
2018-07-08T20:37:47.429Z,17.00
2018-07-08T20:40:15.860Z,17.00
2018-07-08T20:42:44.219Z,16.90
2018-07-08T20:45:12.688Z,16.90
2018-07-08T20:47:41.119Z,16.80
2018-07-08T20:50:09.620Z,16.70
2018-07-08T20:52:38.113Z,16.60
2018-07-08T20:55:07.056Z,16.70
2018-07-08T20:57:35.678Z,16.60
2018-07-08T21:00:04.470Z,16.60
2018-07-08T21:02:33.143Z,16.50
2018-07-08T21:05:01.529Z,16.50
2018-07-08T21:07:29.898Z,16.40
2018-07-08T21:09:58.247Z,16.40
2018-07-08T21:12:26.497Z,16.30
2018-07-08T21:14:54.746Z,16.30
2018-07-08T21:17:23.083Z,16.20
2018-07-08T21:19:51.438Z,16.30
2018-07-08T21:22:19.907Z,16.20
2018-07-08T21:24:48.259Z,16.20
2018-07-08T21:27:16.624Z,16.10
2018-07-08T21:29:44.929Z,16.10
2018-07-08T21:32:13.605Z,16.00
2018-07-08T21:34:42.457Z,16.00
2018-07-08T21:37:10.881Z,15.90
2018-07-08T21:39:39.341Z,15.90
2018-07-08T21:42:07.815Z,15.80
2018-07-08T21:44:36.237Z,15.90
2018-07-08T21:47:04.574Z,15.90
2018-07-08T21:49:33.900Z,15.90
2018-07-08T21:52:02.295Z,15.90
2018-07-08T21:54:30.738Z,15.90
2018-07-08T21:57:00.396Z,15.80
2018-07-08T21:59:29.744Z,15.80
2018-07-08T22:02:00.562Z,15.80
2018-07-08T22:04:32.658Z,15.70
2018-07-08T22:07:06.440Z,15.70
2018-07-08T22:09:35.037Z,15.60
2018-07-08T22:12:03.460Z,15.60
2018-07-08T22:14:31.794Z,15.60
2018-07-08T22:17:00.009Z,15.60
2018-07-08T22:19:28.444Z,15.60
2018-07-08T22:21:56.824Z,15.50
2018-07-08T22:24:25.540Z,15.50
2018-07-08T22:26:53.837Z,15.50
2018-07-08T22:29:22.152Z,15.30
2018-07-08T22:31:50.336Z,15.20
2018-07-08T22:34:18.637Z,15.20
2018-07-08T22:36:47.072Z,15.10
2018-07-08T22:39:15.370Z,15.10
2018-07-08T22:41:43.749Z,15.10
2018-07-08T22:44:12.253Z,15.00
2018-07-08T22:46:40.623Z,14.90
2018-07-08T22:49:09.129Z,14.90
2018-07-08T22:51:37.429Z,14.90
2018-07-08T22:54:05.704Z,14.90
2018-07-08T22:56:33.930Z,14.90
2018-07-08T22:59:02.210Z,14.80
2018-07-08T23:02:45.859Z,14.80
2018-07-08T23:05:14.779Z,14.80
2018-07-08T23:07:43.096Z,14.70
2018-07-08T23:10:12.081Z,14.70
2018-07-08T23:12:40.327Z,14.70
2018-07-08T23:15:08.697Z,14.70
2018-07-08T23:17:37.103Z,14.70
2018-07-08T23:20:05.485Z,14.60
2018-07-08T23:22:44.928Z,14.60
2018-07-08T23:25:13.226Z,14.60
2018-07-08T23:27:41.898Z,14.50
2018-07-08T23:30:10.134Z,14.50
2018-07-08T23:32:38.436Z,14.50
2018-07-08T23:35:07.100Z,14.40
2018-07-08T23:37:35.565Z,14.40
2018-07-08T23:40:03.972Z,14.40
2018-07-08T23:42:32.226Z,14.30
2018-07-08T23:45:00.945Z,14.30
2018-07-08T23:47:29.307Z,14.20
2018-07-08T23:49:57.591Z,14.30
2018-07-08T23:52:25.852Z,14.30
2018-07-08T23:54:54.178Z,14.20
2018-07-08T23:57:22.413Z,14.20
2018-07-08T23:59:50.677Z,14.20
